首页
METAR-TAF:

METAR-TAF

机场 :

Lee Gilmer Memorial Airport

蓋恩斯維爾, 喬治亞, 美国

纬度: 34-16-19N, 经度: 083-49-49W, 海拔: 388米

当前天气观测

该预报发布于45分钟前的23:53 UTC
风速7节,风向
温度 22°C
湿度 73%
气压 1018 hPa
能見度: 16.1公里
少量云层高于2500英尺
少量云层高于3100英尺
阴天层高于9000英尺

METAR: KGVL 262353Z AUTO 09007KT 10SM FEW025 FEW031 OVC090 22/17 A3006 RMK AO2 SLP167 T02220172 10244 20222 53000

时间: 20:38 (00:38 UTC)


TAF: 丢失

超过4000个机场的气象观测和天气预报(METAR&TAF报告)。

可查询的气象台以黄色和红色小点在地图上表示。

将鼠标移到小点上方,可查看气象台名称。

然后点击查看天气观测和预报。

如需切换地图:点击带黑十字的绿色按钮放大地图;点击带横线的绿色按钮缩小地图;或者点击绿色箭头查看邻近地区的地图。


METAR-TAF: